createdAt,value
2019-04-26T00:00:18.165Z,1.85
2019-04-26T00:02:47.183Z,2.08
2019-04-26T00:05:16.478Z,1.50
2019-04-26T00:07:45.675Z,1.98
2019-04-26T00:10:14.459Z,2.58
2019-04-26T00:12:43.115Z,2.00
2019-04-26T00:15:12.181Z,2.20
2019-04-26T00:17:41.184Z,1.55
2019-04-26T00:20:11.505Z,2.30
2019-04-26T00:22:40.581Z,2.37
2019-04-26T00:25:09.958Z,3.83
2019-04-26T00:27:39.801Z,2.20
2019-04-26T00:30:08.949Z,2.20
2019-04-26T00:32:37.613Z,2.67
2019-04-26T00:35:07.223Z,2.33
2019-04-26T00:37:35.836Z,2.20
2019-04-26T00:40:05.380Z,1.65
2019-04-26T00:42:34.209Z,3.33
2019-04-26T00:45:03.194Z,4.10
2019-04-26T00:47:32.587Z,3.37
2019-04-26T00:50:01.897Z,2.30
2019-04-26T00:52:30.867Z,2.85
2019-04-26T00:55:00.711Z,2.33
2019-04-26T00:57:31.535Z,2.10
2019-04-26T01:00:00.431Z,2.50
2019-04-26T01:02:29.195Z,2.22
2019-04-26T01:04:57.913Z,2.30
2019-04-26T01:07:26.523Z,2.47
2019-04-26T01:09:55.190Z,2.35
2019-04-26T01:12:23.946Z,2.12
2019-04-26T01:14:52.734Z,1.72
2019-04-26T01:17:22.376Z,1.92
2019-04-26T01:19:53.066Z,2.02
2019-04-26T01:22:27.525Z,3.02
2019-04-26T01:24:58.018Z,3.30
2019-04-26T01:27:29.284Z,3.42
2019-04-26T01:30:02.512Z,2.58
2019-04-26T01:32:33.467Z,2.67
2019-04-26T01:35:02.076Z,2.45
2019-04-26T01:37:32.272Z,2.20
2019-04-26T01:40:05.572Z,2.35
2019-04-26T01:42:35.469Z,2.72
2019-04-26T01:45:05.391Z,2.27
2019-04-26T01:47:34.595Z,3.37
2019-04-26T01:50:04.917Z,3.75
2019-04-26T01:52:33.745Z,2.40
2019-04-26T01:55:03.024Z,3.75
2019-04-26T01:57:32.930Z,3.33
2019-04-26T02:00:01.547Z,2.90
2019-04-26T02:02:30.268Z,3.10
2019-04-26T02:04:59.187Z,2.27
2019-04-26T02:07:28.334Z,2.92
2019-04-26T02:09:57.590Z,3.15
2019-04-26T02:12:26.728Z,2.30
2019-04-26T02:14:55.645Z,4.87
2019-04-26T02:17:25.361Z,3.77
2019-04-26T02:19:54.984Z,4.42
2019-04-26T02:22:24.472Z,3.35
2019-04-26T02:24:53.407Z,4.03
2019-04-26T02:27:22.016Z,4.65
2019-04-26T02:29:50.845Z,3.42
2019-04-26T02:32:19.948Z,2.72
2019-04-26T02:34:48.907Z,3.40
2019-04-26T02:37:17.621Z,4.12
2019-04-26T02:39:46.326Z,3.17
2019-04-26T02:42:30.190Z,2.85
2019-04-26T02:47:39.105Z,2.58
2019-04-26T02:50:14.978Z,3.37
2019-04-26T02:52:56.872Z,4.70
2019-04-26T02:55:56.613Z,3.95
2019-04-26T02:58:31.490Z,3.75
2019-04-26T03:01:00.982Z,4.67
2019-04-26T03:03:32.233Z,3.30
2019-04-26T03:06:02.465Z,4.22
2019-04-26T03:08:35.851Z,3.50
2019-04-26T03:11:09.582Z,3.80
2019-04-26T03:13:41.394Z,3.72
2019-04-26T03:16:14.017Z,4.50
2019-04-26T03:18:47.197Z,6.30
2019-04-26T03:21:34.206Z,3.77
2019-04-26T03:24:18.917Z,5.05
2019-04-26T03:27:07.545Z,3.62
2019-04-26T03:29:43.851Z,5.25
2019-04-26T03:32:54.156Z,5.00
2019-04-26T03:35:43.898Z,6.00
2019-04-26T03:38:25.514Z,4.22
2019-04-26T03:41:09.972Z,3.55
2019-04-26T03:43:49.402Z,4.95
2019-04-26T03:46:31.134Z,3.72
2019-04-26T03:49:16.250Z,4.87
2019-04-26T03:52:09.013Z,4.15
2019-04-26T03:54:40.990Z,4.40
2019-04-26T03:57:47.704Z,5.50
2019-04-26T04:00:18.816Z,4.83
2019-04-26T04:03:03.974Z,4.78
2019-04-26T04:05:41.503Z,5.95
2019-04-26T04:08:15.239Z,4.60
2019-04-26T04:13:38.039Z,5.10
2019-04-26T04:16:20.303Z,4.42
2019-04-26T04:18:56.774Z,5.22
2019-04-26T04:21:37.474Z,4.45
2019-04-26T04:24:13.981Z,5.47
2019-04-26T04:27:02.235Z,5.47
2019-04-26T04:29:58.561Z,5.22
2019-04-26T04:33:03.222Z,5.53
2019-04-26T04:35:35.593Z,6.00
2019-04-26T04:38:32.740Z,5.55
2019-04-26T04:41:17.210Z,6.28
2019-04-26T04:44:20.764Z,4.75
2019-04-26T04:47:02.758Z,6.87
2019-04-26T04:49:54.100Z,6.05
2019-04-26T04:52:27.514Z,6.35
2019-04-26T04:55:09.178Z,5.47
2019-04-26T04:57:57.278Z,6.70
2019-04-26T05:00:43.079Z,7.92
2019-04-26T05:03:51.313Z,7.15
2019-04-26T05:06:51.930Z,6.70
2019-04-26T05:09:47.395Z,7.55
2019-04-26T05:12:41.716Z,7.90
2019-04-26T05:15:33.148Z,6.97
2019-04-26T05:18:18.073Z,7.50
2019-04-26T05:20:51.434Z,8.85
2019-04-26T05:23:47.137Z,7.97
2019-04-26T05:26:51.488Z,8.15
2019-04-26T05:32:39.844Z,5.75
2019-04-26T05:35:36.836Z,6.97
2019-04-26T05:38:38.765Z,8.13
2019-04-26T05:42:00.613Z,11.33
2019-04-26T05:45:02.645Z,10.55
2019-04-26T05:48:08.451Z,9.20
2019-04-26T05:51:03.341Z,10.30
2019-04-26T05:53:59.910Z,9.60
2019-04-26T05:57:09.467Z,8.78
2019-04-26T05:59:53.344Z,9.13
2019-04-26T06:02:55.314Z,8.58
2019-04-26T06:06:07.943Z,12.73
2019-04-26T06:09:11.387Z,9.28
2019-04-26T06:11:50.270Z,8.80
2019-04-26T06:14:44.031Z,9.68
2019-04-26T06:17:41.389Z,8.23
2019-04-26T06:20:29.601Z,13.35
2019-04-26T06:23:08.151Z,9.23
2019-04-26T06:25:50.277Z,10.25
2019-04-26T06:28:50.899Z,10.55
2019-04-26T06:31:36.007Z,10.15
2019-04-26T06:34:11.969Z,9.85
2019-04-26T06:36:51.079Z,10.03
2019-04-26T06:39:32.853Z,8.83
2019-04-26T06:42:37.752Z,10.18
2019-04-26T06:45:16.981Z,10.35
2019-04-26T06:47:56.006Z,10.35
2019-04-26T06:50:35.642Z,10.32
2019-04-26T06:53:28.597Z,10.40
2019-04-26T06:56:02.914Z,10.72
2019-04-26T06:58:44.232Z,9.20
2019-04-26T07:01:40.797Z,9.65
2019-04-26T07:04:26.216Z,11.78
2019-04-26T07:07:19.255Z,12.10
2019-04-26T07:10:01.965Z,10.45
2019-04-26T07:12:50.356Z,11.05
2019-04-26T07:15:44.820Z,9.75
2019-04-26T07:18:26.277Z,9.68
2019-04-26T07:21:11.485Z,8.85
2019-04-26T07:24:11.215Z,9.60
2019-04-26T07:27:13.198Z,10.78
2019-04-26T07:29:58.155Z,8.10
2019-04-26T07:32:52.034Z,9.83
2019-04-26T07:35:49.608Z,9.58
2019-04-26T07:38:56.185Z,8.33
2019-04-26T07:42:09.470Z,7.42
2019-04-26T07:45:05.693Z,9.15
2019-04-26T07:47:48.237Z,9.50
2019-04-26T07:51:11.634Z,9.25
2019-04-26T07:54:05.034Z,7.95
2019-04-26T07:57:10.774Z,9.13
2019-04-26T08:00:20.261Z,7.08
2019-04-26T08:03:02.229Z,8.20
2019-04-26T08:05:41.313Z,7.12
2019-04-26T08:08:15.210Z,10.38
2019-04-26T08:10:56.474Z,7.58
2019-04-26T08:13:28.262Z,8.23
2019-04-26T08:16:01.789Z,6.37
2019-04-26T08:18:36.856Z,7.08
2019-04-26T08:21:15.193Z,7.30
2019-04-26T08:23:44.034Z,7.97
2019-04-26T08:26:15.545Z,7.30
2019-04-26T08:28:46.843Z,8.73
2019-04-26T08:31:21.299Z,7.62
2019-04-26T08:33:51.498Z,6.30
2019-04-26T08:36:26.635Z,8.75
2019-04-26T08:38:54.078Z,4.83
2019-04-26T08:41:24.151Z,9.88
2019-04-26T08:43:55.882Z,7.80
2019-04-26T08:46:28.331Z,6.47
2019-04-26T08:49:02.196Z,7.30
2019-04-26T08:51:32.143Z,5.07
2019-04-26T08:54:03.387Z,6.22
2019-04-26T08:56:36.262Z,7.58
2019-04-26T08:59:23.797Z,7.28
2019-04-26T09:01:55.127Z,6.75
2019-04-26T09:04:25.565Z,7.80
2019-04-26T09:06:57.365Z,6.75
2019-04-26T09:09:29.021Z,7.05
2019-04-26T09:12:00.177Z,6.75
2019-04-26T09:14:32.222Z,6.20
2019-04-26T09:17:00.834Z,8.03
2019-04-26T09:19:30.563Z,9.73
2019-04-26T09:22:12.168Z,5.85
2019-04-26T09:24:30.278Z,7.10
2019-04-26T09:26:58.934Z,6.85
2019-04-26T09:29:30.441Z,6.40
2019-04-26T09:31:57.931Z,6.85
2019-04-26T09:34:26.581Z,10.70
2019-04-26T09:36:55.365Z,7.03
2019-04-26T09:39:25.207Z,6.70
2019-04-26T09:41:54.077Z,6.50
2019-04-26T09:44:23.527Z,7.42
2019-04-26T09:46:52.962Z,9.70
2019-04-26T09:49:22.895Z,7.53
2019-04-26T09:51:51.574Z,8.85
2019-04-26T09:54:21.020Z,5.67
2019-04-26T09:56:49.882Z,8.08
2019-04-26T09:59:19.651Z,7.17
2019-04-26T10:01:48.314Z,6.22
2019-04-26T10:04:17.058Z,7.55
2019-04-26T10:06:45.784Z,5.10
2019-04-26T10:09:17.288Z,6.62
2019-04-26T10:11:45.349Z,7.47
2019-04-26T10:14:13.963Z,6.15
2019-04-26T10:16:42.625Z,6.62
2019-04-26T10:19:11.237Z,7.65
2019-04-26T10:21:39.914Z,5.90
2019-04-26T10:24:08.725Z,5.97
2019-04-26T10:26:37.374Z,6.25
2019-04-26T10:29:05.985Z,5.60
2019-04-26T10:31:34.644Z,5.50
2019-04-26T10:34:03.321Z,5.78
2019-04-26T10:36:31.989Z,5.53
2019-04-26T10:39:00.653Z,4.78
2019-04-26T10:41:29.320Z,3.87
2019-04-26T10:43:57.929Z,5.97
2019-04-26T10:46:28.328Z,4.15
2019-04-26T10:49:08.284Z,6.83
2019-04-26T10:51:27.523Z,4.05
2019-04-26T10:53:56.136Z,4.83
2019-04-26T10:56:25.357Z,5.72
2019-04-26T10:58:54.163Z,5.45
2019-04-26T11:01:22.824Z,7.15
2019-04-26T11:03:51.430Z,5.35
2019-04-26T11:06:20.328Z,4.80
2019-04-26T11:08:48.983Z,6.80
2019-04-26T11:11:18.194Z,5.45
2019-04-26T11:13:47.251Z,5.72
2019-04-26T11:16:16.027Z,5.55
2019-04-26T11:18:44.630Z,5.55
2019-04-26T11:21:16.367Z,5.00
2019-04-26T11:23:45.474Z,6.20
2019-04-26T11:26:16.569Z,5.78
2019-04-26T11:28:44.473Z,4.65
2019-04-26T11:31:13.169Z,5.00
2019-04-26T11:33:45.104Z,4.53
2019-04-26T11:36:12.255Z,5.55
2019-04-26T11:38:40.994Z,7.92
2019-04-26T11:41:09.777Z,5.47
2019-04-26T11:43:38.536Z,8.55
2019-04-26T11:46:07.224Z,5.45
2019-04-26T11:48:35.877Z,5.95
2019-04-26T11:51:04.561Z,4.60
2019-04-26T11:53:33.587Z,7.62
2019-04-26T11:56:04.627Z,6.45
2019-04-26T11:58:33.723Z,5.60
2019-04-26T12:01:02.381Z,7.90
2019-04-26T12:03:31.041Z,4.42
2019-04-26T12:05:59.647Z,6.85
2019-04-26T12:08:28.369Z,6.20
2019-04-26T12:10:58.132Z,5.60
2019-04-26T12:13:26.817Z,6.97
2019-04-26T12:15:55.469Z,7.92
2019-04-26T12:18:24.796Z,4.97
2019-04-26T12:20:57.021Z,3.90
2019-04-26T12:23:23.915Z,4.83
2019-04-26T12:25:52.530Z,6.05
2019-04-26T12:28:22.190Z,4.62
2019-04-26T12:30:58.448Z,8.35
2019-04-26T12:33:25.996Z,4.78
2019-04-26T12:35:57.003Z,5.05
2019-04-26T12:38:28.595Z,5.37
2019-04-26T12:40:57.471Z,5.17
2019-04-26T12:43:26.269Z,5.15
2019-04-26T12:45:55.182Z,5.28
2019-04-26T12:48:23.860Z,6.28
2019-04-26T12:50:52.740Z,6.28
2019-04-26T12:53:22.024Z,4.92
2019-04-26T12:55:53.220Z,8.03
2019-04-26T12:58:21.073Z,5.40
2019-04-26T13:00:54.288Z,4.90
2019-04-26T13:03:20.895Z,7.15
2019-04-26T13:05:57.486Z,8.23
2019-04-26T13:08:20.100Z,5.65
2019-04-26T13:10:49.852Z,13.68
2019-04-26T13:13:18.579Z,7.45
2019-04-26T13:15:51.677Z,8.13
2019-04-26T13:18:20.519Z,5.67
2019-04-26T13:20:49.119Z,5.25
2019-04-26T13:23:20.506Z,4.95
2019-04-26T13:25:50.156Z,6.83
2019-04-26T13:28:22.057Z,6.72
2019-04-26T13:30:51.600Z,6.47
2019-04-26T13:33:23.213Z,6.05
2019-04-26T13:36:02.611Z,6.42
2019-04-26T13:38:23.078Z,5.28
2019-04-26T13:40:51.851Z,6.50
2019-04-26T13:43:22.732Z,4.80
2019-04-26T13:45:50.957Z,4.58
2019-04-26T13:48:19.567Z,6.20
2019-04-26T13:50:48.762Z,4.10
2019-04-26T13:53:18.211Z,3.83
2019-04-26T13:55:48.205Z,5.58
2019-04-26T13:58:20.920Z,8.10
2019-04-26T14:00:48.524Z,4.65
2019-04-26T14:03:18.689Z,5.28
2019-04-26T14:05:48.178Z,4.17
2019-04-26T14:08:17.723Z,3.77
2019-04-26T14:10:49.728Z,3.72
2019-04-26T14:13:20.742Z,4.90
2019-04-26T14:15:51.881Z,4.60
2019-04-26T14:18:21.165Z,5.87
2019-04-26T14:20:54.763Z,4.60
2019-04-26T14:23:22.012Z,3.90
2019-04-26T14:25:50.674Z,4.97
2019-04-26T14:28:20.295Z,5.78
2019-04-26T14:30:49.740Z,3.10
2019-04-26T14:33:18.609Z,4.70
2019-04-26T14:35:50.613Z,2.65
2019-04-26T14:38:27.627Z,5.12
2019-04-26T14:40:56.867Z,3.05
2019-04-26T14:43:22.427Z,5.33
2019-04-26T14:45:55.944Z,5.22
2019-04-26T14:48:35.073Z,3.05
2019-04-26T14:50:53.365Z,3.55
2019-04-26T14:53:24.069Z,4.08
2019-04-26T14:55:54.712Z,3.02
2019-04-26T14:58:29.849Z,3.47
2019-04-26T15:00:55.877Z,3.20
2019-04-26T15:03:25.651Z,3.30
2019-04-26T15:05:55.358Z,4.78
2019-04-26T15:08:26.869Z,3.50
2019-04-26T15:11:01.072Z,3.37
2019-04-26T15:13:26.512Z,4.05
2019-04-26T15:15:55.804Z,2.52
2019-04-26T15:18:24.464Z,2.37
2019-04-26T15:20:56.818Z,2.22
2019-04-26T15:23:26.538Z,2.98
2019-04-26T15:25:58.469Z,2.35
2019-04-26T15:28:26.841Z,1.77
2019-04-26T15:30:56.335Z,2.85
2019-04-26T15:33:28.067Z,4.58
2019-04-26T15:35:57.762Z,2.33
2019-04-26T15:38:27.344Z,1.42
2019-04-26T15:40:57.366Z,2.72
2019-04-26T15:43:27.087Z,2.45
2019-04-26T15:45:57.626Z,2.83
2019-04-26T15:48:26.239Z,3.20
2019-04-26T15:50:54.901Z,2.27
2019-04-26T15:53:24.651Z,2.62
2019-04-26T15:55:54.469Z,3.05
2019-04-26T15:58:24.041Z,1.17
2019-04-26T16:00:53.238Z,1.40
2019-04-26T16:03:23.364Z,1.60
2019-04-26T16:05:52.630Z,2.83
2019-04-26T16:08:22.959Z,3.80
2019-04-26T16:10:53.209Z,2.37
2019-04-26T16:13:24.072Z,1.70
2019-04-26T16:15:52.903Z,1.20
2019-04-26T16:18:22.358Z,2.45
2019-04-26T16:20:53.092Z,2.27
2019-04-26T16:23:22.379Z,3.02
2019-04-26T16:25:52.561Z,1.92
2019-04-26T16:28:22.929Z,2.98
2019-04-26T16:30:53.094Z,1.15
2019-04-26T16:33:23.324Z,3.37
2019-04-26T16:35:52.488Z,3.62
2019-04-26T16:38:22.460Z,4.30
2019-04-26T16:40:53.459Z,1.87
2019-04-26T16:43:36.697Z,1.50
2019-04-26T16:45:54.250Z,2.10
2019-04-26T16:48:25.746Z,1.80
2019-04-26T16:50:53.239Z,1.32
2019-04-26T16:53:37.780Z,2.65
2019-04-26T16:55:53.340Z,1.32
2019-04-26T16:58:24.641Z,3.50
2019-04-26T17:00:57.731Z,2.22
2019-04-26T17:03:25.961Z,2.50
2019-04-26T17:06:04.781Z,2.45
2019-04-26T17:08:23.845Z,3.40
2019-04-26T17:10:56.785Z,4.20
2019-04-26T17:13:23.924Z,2.33
2019-04-26T17:15:58.079Z,2.35
2019-04-26T17:18:26.895Z,3.12
2019-04-26T17:20:54.178Z,2.47
2019-04-26T17:23:23.938Z,1.50
2019-04-26T17:25:55.123Z,2.50
2019-04-26T17:28:26.510Z,2.45
2019-04-26T17:30:54.015Z,2.62
2019-04-26T17:33:28.015Z,2.30
2019-04-26T17:35:53.079Z,5.78
2019-04-26T17:38:22.479Z,2.12
2019-04-26T17:40:51.311Z,1.75
2019-04-26T17:43:21.260Z,1.87
2019-04-26T17:45:51.655Z,1.77
2019-04-26T17:48:21.186Z,3.37
2019-04-26T17:50:49.907Z,2.83
2019-04-26T17:53:28.646Z,2.45
2019-04-26T17:55:54.621Z,3.42
2019-04-26T17:58:27.476Z,3.17
2019-04-26T18:00:52.216Z,2.50
2019-04-26T18:03:22.974Z,3.08
2019-04-26T18:05:57.088Z,2.00
2019-04-26T18:08:35.847Z,3.02
2019-04-26T18:10:53.774Z,2.55
2019-04-26T18:13:24.058Z,3.70
2019-04-26T18:15:54.634Z,2.45
2019-04-26T18:18:24.410Z,5.20
2019-04-26T18:20:54.426Z,2.58
2019-04-26T18:23:24.682Z,2.33
2019-04-26T18:25:56.039Z,3.67
2019-04-26T18:28:25.683Z,4.58
2019-04-26T18:30:54.376Z,3.17
2019-04-26T18:33:25.977Z,3.37
2019-04-26T18:35:57.288Z,4.70
2019-04-26T18:38:24.828Z,2.47
2019-04-26T18:41:00.929Z,4.30
2019-04-26T18:43:25.994Z,2.65
2019-04-26T18:45:58.761Z,4.83
2019-04-26T18:48:27.166Z,2.92
2019-04-26T18:50:56.338Z,2.95
2019-04-26T18:53:24.996Z,2.87
2019-04-26T18:55:54.224Z,4.17
2019-04-26T18:58:23.676Z,2.58
2019-04-26T19:00:57.491Z,2.87
2019-04-26T19:03:29.924Z,2.02
2019-04-26T19:05:58.541Z,3.80
2019-04-26T19:08:27.389Z,3.27
2019-04-26T19:11:01.133Z,1.45
2019-04-26T19:13:30.882Z,1.92
2019-04-26T19:15:57.238Z,2.92
2019-04-26T19:18:26.047Z,3.37
2019-04-26T19:20:54.859Z,2.98
2019-04-26T19:23:29.015Z,1.70
2019-04-26T19:25:53.928Z,2.87
2019-04-26T19:28:23.494Z,3.40
2019-04-26T19:30:53.947Z,1.77
2019-04-26T19:33:23.600Z,3.98
2019-04-26T19:35:52.396Z,5.33
2019-04-26T19:38:21.388Z,2.05
2019-04-26T19:40:52.045Z,3.02
2019-04-26T19:43:30.394Z,2.67
2019-04-26T19:45:52.535Z,3.50
2019-04-26T19:48:22.749Z,2.30
2019-04-26T19:50:52.710Z,3.50
2019-04-26T19:53:24.692Z,2.85
2019-04-26T19:55:54.838Z,3.27
2019-04-26T19:58:22.793Z,3.72
2019-04-26T20:00:52.396Z,4.12
2019-04-26T20:03:21.501Z,2.65
2019-04-26T20:05:50.115Z,3.30
2019-04-26T20:08:18.723Z,3.25
2019-04-26T20:10:47.384Z,4.72
2019-04-26T20:13:16.727Z,2.98
2019-04-26T20:15:45.527Z,4.67
2019-04-26T20:18:17.266Z,3.62
2019-04-26T20:20:44.573Z,3.60
2019-04-26T20:23:13.194Z,5.47
2019-04-26T20:25:41.972Z,2.20
2019-04-26T20:28:12.182Z,2.42
2019-04-26T20:30:42.218Z,4.20
2019-04-26T20:33:12.135Z,2.52
2019-04-26T20:35:42.418Z,3.60
2019-04-26T20:38:11.893Z,2.75
2019-04-26T20:40:43.387Z,2.35
2019-04-26T20:43:23.463Z,3.08
2019-04-26T20:45:42.691Z,2.75
2019-04-26T20:48:11.965Z,3.42
2019-04-26T20:50:41.343Z,3.33
2019-04-26T20:53:11.867Z,3.02
2019-04-26T20:55:42.616Z,1.87
2019-04-26T20:58:11.784Z,2.65
2019-04-26T21:00:53.535Z,3.70
2019-04-26T21:03:22.719Z,3.72
2019-04-26T21:05:46.332Z,3.10
2019-04-26T21:08:12.433Z,2.58
2019-04-26T21:10:41.774Z,3.85
2019-04-26T21:13:12.203Z,2.50
2019-04-26T21:15:54.643Z,3.70
2019-04-26T21:18:12.421Z,3.22
2019-04-26T21:20:42.476Z,4.85
2019-04-26T21:23:13.262Z,5.55
2019-04-26T21:25:42.070Z,5.30
2019-04-26T21:28:11.541Z,2.98
2019-04-26T21:30:41.782Z,3.35
2019-04-26T21:33:10.472Z,2.52
2019-04-26T21:35:39.083Z,2.72
2019-04-26T21:38:07.752Z,3.02
2019-04-26T21:40:36.357Z,3.95
2019-04-26T21:43:05.046Z,4.15
2019-04-26T21:45:34.137Z,2.45
2019-04-26T21:48:06.727Z,2.52
2019-04-26T21:50:38.509Z,4.40
2019-04-26T21:53:06.846Z,3.40
2019-04-26T21:55:38.334Z,2.80
2019-04-26T21:58:05.194Z,2.17
2019-04-26T22:00:34.050Z,2.10
2019-04-26T22:03:03.780Z,3.17
2019-04-26T22:05:35.122Z,2.80
2019-04-26T22:08:03.774Z,4.55
2019-04-26T22:10:32.946Z,3.35
2019-04-26T22:13:05.665Z,3.60
2019-04-26T22:15:34.172Z,3.17
2019-04-26T22:18:03.294Z,3.95
2019-04-26T22:20:33.587Z,4.87
2019-04-26T22:23:02.410Z,3.77
2019-04-26T22:25:31.092Z,3.08
2019-04-26T22:28:00.469Z,3.30
2019-04-26T22:30:30.094Z,2.62
2019-04-26T22:32:58.702Z,3.30
2019-04-26T22:35:27.434Z,6.22
2019-04-26T22:37:56.048Z,6.10
2019-04-26T22:40:24.708Z,3.92
2019-04-26T22:42:54.405Z,3.92
2019-04-26T22:45:23.520Z,4.22
2019-04-26T22:47:53.590Z,3.45
2019-04-26T22:50:24.919Z,4.40
2019-04-26T22:52:54.648Z,3.67
2019-04-26T22:55:27.239Z,5.28
2019-04-26T22:57:53.608Z,4.67
2019-04-26T23:00:25.580Z,4.65
2019-04-26T23:02:53.375Z,5.00
2019-04-26T23:05:23.094Z,5.03
2019-04-26T23:07:54.692Z,5.25
2019-04-26T23:10:24.419Z,4.97
2019-04-26T23:12:53.964Z,6.45
2019-04-26T23:15:23.938Z,5.72
2019-04-26T23:17:53.207Z,5.45
2019-04-26T23:20:23.350Z,6.10
2019-04-26T23:22:52.966Z,5.85
2019-04-26T23:25:21.740Z,6.37
2019-04-26T23:27:54.397Z,5.60
2019-04-26T23:30:20.802Z,7.53
2019-04-26T23:32:52.295Z,6.92
2019-04-26T23:35:19.845Z,6.10
2019-04-26T23:37:48.512Z,6.20
2019-04-26T23:40:20.622Z,5.70
2019-04-26T23:42:47.682Z,6.58
2019-04-26T23:45:18.193Z,7.10
2019-04-26T23:47:46.852Z,6.37
2019-04-26T23:50:15.533Z,6.60
2019-04-26T23:52:44.187Z,7.33
2019-04-26T23:55:13.484Z,7.28
2019-04-26T23:57:43.508Z,7.10
